createdAt,value
2022-11-06T00:02:32.291Z,8.10
2022-11-06T00:05:40.163Z,8.15
2022-11-06T00:08:28.067Z,8.18
2022-11-06T00:11:12.005Z,8.17
2022-11-06T00:13:53.103Z,8.21
2022-11-06T00:16:34.342Z,8.21
2022-11-06T00:19:13.613Z,8.23
2022-11-06T00:21:53.749Z,8.20
2022-11-06T00:24:33.719Z,8.22
2022-11-06T00:27:15.003Z,8.27
2022-11-06T00:30:07.760Z,8.29
2022-11-06T00:32:48.168Z,8.30
2022-11-06T00:35:30.575Z,8.30
2022-11-06T00:38:11.043Z,8.30
2022-11-06T00:40:50.508Z,8.32
2022-11-06T00:43:30.755Z,8.33
2022-11-06T00:46:12.326Z,8.30
2022-11-06T00:48:53.664Z,8.31
2022-11-06T00:51:33.455Z,8.34
2022-11-06T00:54:16.431Z,8.38
2022-11-06T00:56:57.427Z,8.39
2022-11-06T00:59:39.217Z,8.37
2022-11-06T01:02:19.608Z,8.39
2022-11-06T01:05:00.041Z,8.41
2022-11-06T01:07:42.579Z,8.37
2022-11-06T01:10:24.887Z,8.42
2022-11-06T01:13:05.882Z,8.41
2022-11-06T01:15:43.825Z,8.44
2022-11-06T01:18:24.023Z,8.42
2022-11-06T01:21:07.650Z,8.42
2022-11-06T01:23:53.029Z,8.41
2022-11-06T01:26:39.305Z,8.40
2022-11-06T01:29:25.903Z,8.44
2022-11-06T01:32:05.336Z,8.44
2022-11-06T01:34:46.758Z,8.46
2022-11-06T01:37:24.611Z,8.41
2022-11-06T01:40:05.058Z,8.38
2022-11-06T01:42:44.260Z,8.40
2022-11-06T01:45:32.752Z,8.41
2022-11-06T01:48:26.504Z,8.41
2022-11-06T01:51:06.991Z,8.40
2022-11-06T01:53:46.760Z,8.39
2022-11-06T01:56:26.636Z,8.40
2022-11-06T01:59:11.140Z,8.47
2022-11-06T02:01:51.102Z,8.43
2022-11-06T02:04:30.821Z,8.44
2022-11-06T02:07:14.248Z,8.44
2022-11-06T02:09:55.291Z,8.39
2022-11-06T02:12:41.659Z,8.35
2022-11-06T02:15:29.232Z,8.37
2022-11-06T02:18:28.629Z,8.39
2022-11-06T02:21:26.341Z,8.44
2022-11-06T02:24:23.782Z,8.39
2022-11-06T02:27:06.319Z,8.43
2022-11-06T02:29:51.238Z,8.37
2022-11-06T02:32:34.100Z,8.39
2022-11-06T02:35:19.744Z,8.38
2022-11-06T02:38:02.485Z,8.38
2022-11-06T02:41:27.948Z,8.35
2022-11-06T02:44:11.044Z,8.34
2022-11-06T02:46:51.942Z,8.40
2022-11-06T02:49:32.761Z,8.37
2022-11-06T02:52:14.152Z,8.36
2022-11-06T02:54:56.267Z,8.34
2022-11-06T02:57:39.167Z,8.32
2022-11-06T03:00:19.711Z,8.27
2022-11-06T03:03:01.560Z,8.21
2022-11-06T03:05:42.328Z,8.19
2022-11-06T03:08:25.062Z,8.04
2022-11-06T03:11:07.842Z,7.99
2022-11-06T03:13:50.242Z,7.94
2022-11-06T03:16:30.740Z,7.89
2022-11-06T03:19:12.572Z,7.86
2022-11-06T03:21:55.285Z,7.78
2022-11-06T03:24:37.204Z,7.79
2022-11-06T03:27:17.105Z,7.82
2022-11-06T03:29:59.566Z,7.70
2022-11-06T03:32:38.495Z,7.73
2022-11-06T03:35:20.926Z,7.66
2022-11-06T03:38:02.333Z,7.66
2022-11-06T03:40:42.774Z,7.61
2022-11-06T03:43:24.064Z,7.62
2022-11-06T03:46:19.317Z,7.62
2022-11-06T03:49:02.338Z,7.64
2022-11-06T03:51:44.899Z,7.67
2022-11-06T03:54:26.441Z,7.66
2022-11-06T03:57:10.679Z,7.70
2022-11-06T03:59:52.449Z,7.70
2022-11-06T04:02:33.292Z,7.71
2022-11-06T04:05:15.946Z,7.74
2022-11-06T04:08:13.101Z,7.74
2022-11-06T04:11:11.059Z,7.76
2022-11-06T04:14:01.789Z,7.82
2022-11-06T04:16:42.675Z,7.82
2022-11-06T04:19:23.583Z,7.86
2022-11-06T04:22:13.635Z,7.83
2022-11-06T04:25:15.255Z,7.86
2022-11-06T04:28:07.695Z,7.89
2022-11-06T04:30:53.270Z,7.90
2022-11-06T04:33:32.945Z,7.95
2022-11-06T04:36:16.866Z,7.97
2022-11-06T04:38:59.618Z,8.01
2022-11-06T04:41:41.745Z,8.05
2022-11-06T04:44:24.230Z,8.05
2022-11-06T04:47:06.195Z,8.09
2022-11-06T04:49:46.816Z,8.10
2022-11-06T04:53:10.807Z,8.14
2022-11-06T04:55:52.732Z,8.13
2022-11-06T04:58:33.275Z,8.13
2022-11-06T05:01:12.692Z,8.12
2022-11-06T05:03:54.802Z,8.15
2022-11-06T05:06:33.859Z,8.21
2022-11-06T05:09:12.089Z,8.23
2022-11-06T05:11:52.299Z,8.18
2022-11-06T05:14:33.673Z,8.23
2022-11-06T05:17:15.144Z,8.16
2022-11-06T05:19:54.508Z,8.25
2022-11-06T05:22:48.584Z,8.26
2022-11-06T05:25:30.085Z,8.19
2022-11-06T05:28:08.712Z,8.24
2022-11-06T05:30:50.087Z,8.22
2022-11-06T05:33:31.486Z,8.14
2022-11-06T05:36:11.527Z,8.11
2022-11-06T05:38:50.783Z,8.07
2022-11-06T05:41:51.654Z,8.02
2022-11-06T05:44:33.086Z,7.98
2022-11-06T05:47:12.896Z,8.00
2022-11-06T05:49:52.713Z,7.85
2022-11-06T05:52:32.568Z,7.78
2022-11-06T05:55:15.388Z,7.73
2022-11-06T05:57:59.997Z,7.75
2022-11-06T06:00:39.924Z,7.64
2022-11-06T06:03:18.368Z,7.65
2022-11-06T06:05:59.576Z,7.73
2022-11-06T06:08:41.033Z,7.72
2022-11-06T06:11:22.383Z,7.66
2022-11-06T06:14:02.233Z,7.69
2022-11-06T06:16:45.627Z,7.69
2022-11-06T06:19:24.690Z,7.68
2022-11-06T06:22:04.827Z,7.62
2022-11-06T06:24:46.756Z,7.66
2022-11-06T06:27:28.273Z,7.67
2022-11-06T06:30:07.935Z,7.65
2022-11-06T06:32:46.989Z,7.64
2022-11-06T06:35:29.005Z,7.64
2022-11-06T06:38:12.382Z,7.63
2022-11-06T06:40:53.760Z,7.63
2022-11-06T06:43:32.650Z,7.62
2022-11-06T06:46:10.731Z,7.56
2022-11-06T06:48:50.951Z,7.48
2022-11-06T06:51:34.353Z,7.50
2022-11-06T06:54:15.331Z,7.50
2022-11-06T06:56:54.853Z,7.48
2022-11-06T06:59:35.009Z,7.36
2022-11-06T07:02:16.478Z,7.29
2022-11-06T07:04:57.756Z,7.23
2022-11-06T07:07:35.705Z,7.20
2022-11-06T07:10:15.794Z,7.10
2022-11-06T07:12:55.611Z,7.12
2022-11-06T07:15:37.300Z,7.13
2022-11-06T07:18:18.433Z,7.12
2022-11-06T07:21:01.975Z,7.16
2022-11-06T07:23:42.790Z,7.17
2022-11-06T07:26:22.605Z,7.20
2022-11-06T07:29:02.518Z,7.25
2022-11-06T07:31:43.877Z,7.29
2022-11-06T07:34:25.373Z,7.37
2022-11-06T07:37:07.803Z,7.41
2022-11-06T07:39:48.292Z,7.45
2022-11-06T07:42:31.441Z,7.51
2022-11-06T07:45:17.411Z,7.53
2022-11-06T07:47:59.359Z,7.60
2022-11-06T07:50:49.331Z,7.63
2022-11-06T07:53:29.488Z,7.66
2022-11-06T07:56:12.900Z,7.69
2022-11-06T07:58:53.871Z,7.71
2022-11-06T08:01:35.908Z,7.76
2022-11-06T08:04:18.694Z,7.77
2022-11-06T08:06:59.099Z,7.83
2022-11-06T08:09:39.529Z,7.83
2022-11-06T08:12:30.810Z,7.88
2022-11-06T08:15:09.494Z,7.94
2022-11-06T08:17:50.772Z,7.99
2022-11-06T08:20:34.327Z,8.01
2022-11-06T08:23:15.167Z,8.02
2022-11-06T08:25:57.373Z,8.08
2022-11-06T08:28:37.920Z,8.14
2022-11-06T08:31:17.750Z,8.19
2022-11-06T08:33:59.573Z,8.23
2022-11-06T08:36:49.352Z,8.22
2022-11-06T08:39:28.081Z,8.22
2022-11-06T08:42:06.996Z,8.27
2022-11-06T08:44:48.062Z,8.25
2022-11-06T08:47:29.359Z,8.30
2022-11-06T08:50:11.395Z,8.31
2022-11-06T08:52:52.226Z,8.37
2022-11-06T08:55:34.148Z,8.42
2022-11-06T08:58:15.184Z,8.50
2022-11-06T09:00:56.503Z,8.58
2022-11-06T09:03:35.938Z,8.72
2022-11-06T09:06:18.064Z,8.86
2022-11-06T09:08:59.477Z,8.94
2022-11-06T09:11:40.501Z,9.01
2022-11-06T09:14:20.285Z,9.07
2022-11-06T09:17:02.144Z,9.14
2022-11-06T09:19:41.182Z,9.23
2022-11-06T09:22:21.353Z,9.33
2022-11-06T09:25:04.059Z,9.44
2022-11-06T09:27:48.352Z,9.48
2022-11-06T09:30:31.153Z,9.56
2022-11-06T09:33:13.653Z,9.62
2022-11-06T09:35:54.772Z,9.68
2022-11-06T09:38:34.626Z,9.78
2022-11-06T09:41:18.861Z,9.77
2022-11-06T09:44:05.975Z,9.80
2022-11-06T09:46:56.953Z,9.84
2022-11-06T09:49:38.392Z,9.87
2022-11-06T09:52:18.887Z,9.90
2022-11-06T09:54:59.871Z,9.94
2022-11-06T09:57:43.079Z,10.00
2022-11-06T10:00:25.672Z,10.08
2022-11-06T10:03:06.798Z,10.10
2022-11-06T10:06:09.243Z,10.14
2022-11-06T10:08:50.223Z,10.33
2022-11-06T10:11:41.489Z,10.35
2022-11-06T10:14:25.968Z,10.44
2022-11-06T10:17:08.466Z,10.55
2022-11-06T10:19:51.182Z,10.71
2022-11-06T10:22:33.081Z,10.82
2022-11-06T10:25:15.111Z,11.09
2022-11-06T10:27:59.862Z,11.37
2022-11-06T10:31:30.234Z,11.66
2022-11-06T10:34:12.179Z,11.76
2022-11-06T10:36:52.999Z,12.00
2022-11-06T10:39:34.912Z,11.95
2022-11-06T10:42:15.725Z,12.32
2022-11-06T10:44:57.620Z,12.53
2022-11-06T10:47:39.851Z,12.70
2022-11-06T10:50:17.819Z,12.81
2022-11-06T10:52:58.365Z,12.97
2022-11-06T10:55:41.561Z,12.96
2022-11-06T10:58:24.633Z,13.22
2022-11-06T11:01:05.789Z,13.26
2022-11-06T11:03:46.771Z,13.32
2022-11-06T11:06:28.101Z,13.35
2022-11-06T11:09:13.422Z,13.54
2022-11-06T11:11:54.243Z,13.68
2022-11-06T11:14:35.582Z,13.81
2022-11-06T11:17:20.888Z,13.85
2022-11-06T11:20:02.100Z,14.09
2022-11-06T11:22:43.010Z,14.22
2022-11-06T11:25:26.526Z,14.41
2022-11-06T11:28:07.362Z,14.58
2022-11-06T11:30:47.289Z,14.80
2022-11-06T11:33:29.880Z,14.51
2022-11-06T11:36:10.706Z,14.40
2022-11-06T11:38:53.373Z,14.48
2022-11-06T11:41:36.415Z,14.23
2022-11-06T11:44:18.093Z,14.25
2022-11-06T11:46:58.923Z,14.04
2022-11-06T11:49:40.232Z,14.00
2022-11-06T11:52:21.523Z,14.14
2022-11-06T11:55:01.511Z,13.58
2022-11-06T11:57:43.015Z,13.91
2022-11-06T12:00:26.302Z,13.58
2022-11-06T12:03:07.672Z,13.52
2022-11-06T12:05:48.649Z,13.52
2022-11-06T12:08:28.579Z,13.46
2022-11-06T12:11:11.150Z,13.22
2022-11-06T12:14:13.592Z,13.28
2022-11-06T12:16:54.406Z,13.16
2022-11-06T12:19:35.380Z,13.11
2022-11-06T12:22:18.044Z,13.04
2022-11-06T12:24:59.909Z,13.22
2022-11-06T12:27:41.930Z,13.36
2022-11-06T12:30:22.242Z,13.57
2022-11-06T12:33:05.027Z,13.82
2022-11-06T12:35:47.139Z,14.08
2022-11-06T12:38:31.253Z,14.01
2022-11-06T12:41:16.479Z,14.00
2022-11-06T12:43:57.512Z,13.89
2022-11-06T12:46:58.983Z,13.57
2022-11-06T12:49:52.784Z,13.44
2022-11-06T12:52:41.866Z,13.36
2022-11-06T12:55:24.954Z,13.33
2022-11-06T12:58:14.960Z,13.33
2022-11-06T13:00:58.587Z,13.49
2022-11-06T13:03:46.405Z,13.58
2022-11-06T13:06:29.760Z,13.74
2022-11-06T13:09:13.265Z,14.05
2022-11-06T13:11:56.570Z,14.06
2022-11-06T13:14:36.642Z,14.26
2022-11-06T13:17:22.013Z,13.94
2022-11-06T13:20:17.642Z,13.60
2022-11-06T13:23:00.941Z,13.36
2022-11-06T13:25:44.153Z,12.97
2022-11-06T13:28:27.147Z,12.88
2022-11-06T13:31:08.716Z,12.50
2022-11-06T13:33:48.917Z,12.58
2022-11-06T13:36:29.430Z,12.42
2022-11-06T13:39:13.433Z,12.07
2022-11-06T13:41:51.778Z,11.92
2022-11-06T13:44:32.211Z,11.79
2022-11-06T13:47:13.713Z,11.69
2022-11-06T13:49:57.971Z,11.62
2022-11-06T13:52:58.503Z,11.60
2022-11-06T13:55:44.332Z,11.50
2022-11-06T13:58:35.304Z,11.46
2022-11-06T14:01:22.238Z,11.42
2022-11-06T14:04:19.940Z,11.50
2022-11-06T14:07:00.877Z,11.56
2022-11-06T14:09:43.707Z,11.58
2022-11-06T14:12:22.139Z,11.56
2022-11-06T14:15:23.257Z,11.57
2022-11-06T14:18:13.510Z,11.54
2022-11-06T14:21:18.759Z,11.53
2022-11-06T14:24:07.187Z,11.56
2022-11-06T14:26:49.724Z,11.54
2022-11-06T14:29:52.980Z,11.47
2022-11-06T14:32:41.045Z,11.54
2022-11-06T14:35:46.991Z,11.53
2022-11-06T14:38:36.387Z,11.45
2022-11-06T14:41:50.044Z,11.48
2022-11-06T14:44:43.631Z,11.50
2022-11-06T14:47:34.540Z,11.49
2022-11-06T14:50:26.235Z,11.46
2022-11-06T14:53:21.624Z,11.42
2022-11-06T14:56:02.215Z,11.38
2022-11-06T14:58:48.123Z,11.40
2022-11-06T15:01:34.497Z,11.29
2022-11-06T15:04:19.346Z,11.26
2022-11-06T15:07:02.169Z,11.18
2022-11-06T15:09:46.488Z,11.12
2022-11-06T15:22:57.601Z,11.03
2022-11-06T15:36:06.614Z,10.96
2022-11-06T15:38:49.869Z,10.93
2022-11-06T15:41:32.494Z,10.93
2022-11-06T15:44:13.485Z,10.89
2022-11-06T15:46:55.094Z,10.85
2022-11-06T15:50:11.091Z,10.79
2022-11-06T15:52:51.492Z,10.80
2022-11-06T15:55:34.726Z,10.78
2022-11-06T15:58:30.882Z,10.72
2022-11-06T16:01:23.912Z,10.63
2022-11-06T16:04:44.469Z,10.65
2022-11-06T16:07:29.036Z,10.62
2022-11-06T16:10:08.527Z,10.60
2022-11-06T16:12:58.997Z,10.62
2022-11-06T16:15:53.936Z,10.58
2022-11-06T16:18:36.923Z,10.55
2022-11-06T16:22:06.007Z,10.44
2022-11-06T16:24:47.786Z,10.45
2022-11-06T16:27:28.753Z,10.44
2022-11-06T16:30:24.817Z,10.43
2022-11-06T16:33:11.630Z,10.34
2022-11-06T16:35:55.463Z,10.30
2022-11-06T16:38:42.208Z,10.22
2022-11-06T16:41:41.134Z,10.15
2022-11-06T16:44:30.723Z,10.11
2022-11-06T16:47:16.580Z,10.18
2022-11-06T16:49:57.961Z,10.18
2022-11-06T16:52:54.761Z,10.22
2022-11-06T16:55:35.428Z,10.22
2022-11-06T16:58:17.103Z,10.28
2022-11-06T17:00:59.674Z,10.36
2022-11-06T17:03:42.447Z,10.43
2022-11-06T17:06:23.744Z,10.47
2022-11-06T17:09:09.805Z,10.45
2022-11-06T17:11:50.228Z,10.43
2022-11-06T17:14:30.428Z,10.46
2022-11-06T17:17:24.470Z,10.44
2022-11-06T17:20:07.287Z,10.43
2022-11-06T17:22:49.904Z,10.41
2022-11-06T17:25:30.049Z,10.42
2022-11-06T17:28:16.351Z,10.41
2022-11-06T17:30:57.672Z,10.41
2022-11-06T17:33:39.024Z,10.39
2022-11-06T17:36:20.938Z,10.32
2022-11-06T17:39:01.995Z,10.33
2022-11-06T17:41:43.313Z,10.32
2022-11-06T17:44:22.256Z,10.28
2022-11-06T17:47:03.918Z,10.27
2022-11-06T17:49:46.774Z,10.28
2022-11-06T17:52:27.344Z,10.29
2022-11-06T17:55:10.882Z,10.23
2022-11-06T17:57:51.773Z,10.22
2022-11-06T18:00:33.292Z,10.17
2022-11-06T18:03:20.107Z,10.19
2022-11-06T18:05:58.853Z,10.16
2022-11-06T18:08:39.023Z,10.11
2022-11-06T18:11:20.541Z,10.04
2022-11-06T18:14:01.880Z,10.04
2022-11-06T18:16:49.139Z,10.02
2022-11-06T18:19:29.471Z,10.02
2022-11-06T18:22:10.955Z,9.98
2022-11-06T18:25:34.410Z,9.98
2022-11-06T18:28:16.272Z,9.99
2022-11-06T18:30:58.246Z,9.96
2022-11-06T18:33:38.656Z,9.97
2022-11-06T18:36:22.079Z,9.97
2022-11-06T18:39:04.496Z,9.98
2022-11-06T18:41:44.642Z,9.89
2022-11-06T18:44:25.907Z,9.92
2022-11-06T18:47:07.309Z,9.95
2022-11-06T18:49:46.737Z,9.95
2022-11-06T18:52:51.655Z,9.97
2022-11-06T18:55:27.626Z,10.02
2022-11-06T18:58:12.261Z,10.07
2022-11-06T19:00:57.539Z,10.11
2022-11-06T19:14:06.123Z,10.21
2022-11-06T19:16:45.343Z,10.22
2022-11-06T19:19:25.567Z,10.26
2022-11-06T19:22:06.811Z,10.25
2022-11-06T19:24:46.687Z,10.26
2022-11-06T19:27:28.065Z,10.26
2022-11-06T19:30:10.486Z,10.24
2022-11-06T19:32:53.917Z,10.23
2022-11-06T19:35:34.006Z,10.17
2022-11-06T19:38:15.281Z,10.10
2022-11-06T19:40:56.852Z,10.07
2022-11-06T19:43:39.285Z,9.93
2022-11-06T19:46:24.937Z,9.91
2022-11-06T19:49:10.455Z,9.83
2022-11-06T19:52:41.705Z,9.76
2022-11-06T19:55:27.032Z,9.67
2022-11-06T19:58:28.433Z,9.49
2022-11-06T20:01:13.535Z,9.50
2022-11-06T20:03:54.584Z,9.36
2022-11-06T20:06:49.302Z,9.27
2022-11-06T20:09:30.819Z,9.16
2022-11-06T20:12:14.101Z,9.17
2022-11-06T20:15:37.279Z,9.01
2022-11-06T20:18:21.629Z,9.02
2022-11-06T20:21:01.834Z,8.94
2022-11-06T20:23:42.966Z,8.93
2022-11-06T20:26:24.616Z,8.92
2022-11-06T20:29:25.454Z,8.93
2022-11-06T20:32:25.703Z,8.88
2022-11-06T20:35:26.289Z,8.83
2022-11-06T20:38:07.911Z,8.77
2022-11-06T20:40:49.155Z,8.80
2022-11-06T20:43:42.586Z,8.79
2022-11-06T20:46:47.805Z,8.77
2022-11-06T20:49:29.355Z,8.81
2022-11-06T20:52:14.138Z,8.83
2022-11-06T20:54:57.043Z,8.90
2022-11-06T20:57:38.092Z,8.91
2022-11-06T21:00:19.994Z,8.94
2022-11-06T21:03:02.098Z,8.96
2022-11-06T21:06:03.079Z,8.97
2022-11-06T21:08:44.693Z,8.98
2022-11-06T21:11:45.103Z,8.99
2022-11-06T21:14:27.464Z,9.00
2022-11-06T21:17:11.063Z,8.99
2022-11-06T21:19:52.531Z,9.01
2022-11-06T21:22:36.925Z,8.96
2022-11-06T21:25:20.213Z,9.02
2022-11-06T21:28:01.482Z,9.00
2022-11-06T21:30:42.770Z,9.02
2022-11-06T21:33:22.695Z,9.00
2022-11-06T21:36:09.289Z,9.06
2022-11-06T21:38:50.406Z,9.03
2022-11-06T21:41:33.953Z,9.05
2022-11-06T21:44:17.264Z,9.04
2022-11-06T21:46:57.688Z,9.03
2022-11-06T21:49:39.617Z,9.05
2022-11-06T21:52:38.032Z,9.04
2022-11-06T21:55:37.575Z,9.08
2022-11-06T21:58:20.564Z,9.13
2022-11-06T22:01:04.416Z,9.20
2022-11-06T22:03:47.009Z,9.24
2022-11-06T22:06:28.456Z,9.29
2022-11-06T22:09:24.472Z,9.29
2022-11-06T22:12:07.981Z,9.31
2022-11-06T22:14:51.029Z,9.30
2022-11-06T22:17:31.255Z,9.27
2022-11-06T22:20:11.415Z,9.25
2022-11-06T22:22:52.277Z,9.22
2022-11-06T22:25:35.589Z,9.26
2022-11-06T22:28:18.656Z,9.27
2022-11-06T22:30:59.685Z,9.25
2022-11-06T22:33:47.948Z,9.30
2022-11-06T22:36:30.515Z,9.30
2022-11-06T22:39:13.849Z,9.29
2022-11-06T22:41:54.894Z,9.29
2022-11-06T22:44:36.433Z,9.33
2022-11-06T22:47:17.688Z,9.34
2022-11-06T22:49:57.473Z,9.30
2022-11-06T22:52:39.326Z,9.31
2022-11-06T22:55:20.355Z,9.31
2022-11-06T22:58:21.059Z,9.34
2022-11-06T23:01:02.409Z,9.33
2022-11-06T23:03:43.969Z,9.37
2022-11-06T23:06:27.286Z,9.37
2022-11-06T23:09:09.112Z,9.36
2022-11-06T23:11:49.517Z,9.36
2022-11-06T23:14:27.418Z,9.39
2022-11-06T23:17:07.615Z,9.39
2022-11-06T23:19:48.939Z,9.36
2022-11-06T23:22:37.791Z,9.41
2022-11-06T23:25:19.405Z,9.43
2022-11-06T23:28:00.605Z,9.47
2022-11-06T23:30:43.033Z,9.47
2022-11-06T23:33:24.437Z,9.53
2022-11-06T23:36:06.739Z,9.53
2022-11-06T23:38:46.786Z,9.59
2022-11-06T23:41:45.605Z,9.61
2022-11-06T23:44:42.886Z,9.61
2022-11-06T23:47:25.081Z,9.64
2022-11-06T23:50:07.009Z,9.67
2022-11-06T23:52:47.499Z,9.67
2022-11-06T23:55:30.880Z,9.72
2022-11-06T23:58:11.874Z,9.72
